• Join FlightAware (Why Join?)
  • Login
  • US Flag 
05:55PM EDT


 

Airport Tracker/Info


-or-


 

Live Flight TrackerFlight Track Log ✈ WJA307 ✈ 06-May-2012 ✈ CYVR - CYXS

Flight Track Log - Related Links

Times and Time Zones

All times are in EDT time to prevent confusion due to time zone crossing. See the WJA307 flight status page for this flight to view local times or setup timezone preferences in your user account.

Time Position Orientation Groundspeed Altitude Reporting Facility
EDT Latitude Longitude Course Direction KTS MPH feet Rate Location/Type
11:50AM 49.1667 -123.2333 334° Northwest 160 184 1,500  Level Vancouver Center
11:55AM 49.4333 -123.4333 North 350 403 14,900 2,700 Climbing Vancouver Center
11:56AM 49.5333 -123.4167 18° North 370 426 17,800 3,000 Climbing Vancouver Center
11:57AM 49.6333 -123.3667 360° North 380 437 21,000 3,060 Climbing Vancouver Center
11:58AM 49.7500 -123.3667 12° North 380 437 24,000 2,640 Climbing Vancouver Center
11:59AM 49.8500 -123.3333 10° North 390 449 26,300 2,220 Climbing Vancouver Center
12:00PM 49.9667 -123.3000 North 400 460 28,500 2,040 Climbing Vancouver Center
12:01PM 50.0833 -123.2833 12° North 410 472 30,400 2,100 Climbing Vancouver Center
12:02PM 50.1833 -123.2500 10° North 410 472 32,700 2,220 Climbing Vancouver Center
12:03PM 50.3000 -123.2167 360° North 400 460 34,900 2,040 Climbing Vancouver Center
12:04PM 50.4167 -123.2167 North 400 460 36,800 1,740 Climbing Vancouver Center
12:05PM 50.5167 -123.2000 12° North 390 449 38,400 1,200 Climbing Vancouver Center
12:06PM 50.6167 -123.1667 10° North 390 449 39,200 780 Climbing Vancouver Center
12:07PM 50.7333 -123.1333 North 390 449 40,000 360 Climbing Vancouver Center
12:08PM 50.8500 -123.1167 360° North 400 460 40,000  Level Vancouver Center
12:09PM 50.9500 -123.1167 12° North 400 460 40,000  Level Vancouver Center
12:10PM 51.0500 -123.0833 10° North 390 449 40,000  Level Vancouver Center
12:11PM 51.1667 -123.0500 10° North 390 449 40,000  Level Vancouver Center
12:12PM 51.2833 -123.0167 North 400 460 40,000  Level Vancouver Center
12:13PM 51.4000 -123.0000 360° North 400 460 40,000  Level Vancouver Center
12:14PM 51.5000 -123.0000 10° North 400 460 40,000  Level Vancouver Center
12:15PM 51.6167 -122.9667 12° North 400 460 40,000  Level Vancouver Center
12:16PM 51.7167 -122.9333 10° North 400 460 40,000 -300 Level Vancouver Center
12:17PM 51.8333 -122.9000 North 400 460 39,500 -1,380 Descending Vancouver Center
12:18PM 51.9500 -122.8833 North 400 460 37,300 -2,220 Descending Vancouver Center
12:19PM 52.0500 -122.8667 North 390 449 35,100 -2,160 Descending Vancouver Center
12:20PM 52.1500 -122.8500 12° North 380 437 33,000 -1,980 Descending Vancouver Center
12:21PM 52.2500 -122.8167 12° North 370 426 31,200 -1,860 Descending Vancouver Center
12:22PM 52.3500 -122.7833 360° North 360 414 29,300 -1,800 Descending Vancouver Center
12:23PM 52.4500 -122.7833 11° North 350 403 27,600 -1,800 Descending Vancouver Center
12:24PM 52.5500 -122.7500 14° North 340 391 25,800 -1,800 Descending Vancouver Center
12:25PM 52.6333 -122.7167 360° North 340 391 24,000 -1,800 Descending Vancouver Center
12:26PM 52.7333 -122.7167 North 350 403 22,300 -1,800 Descending Vancouver Center
12:27PM 52.8333 -122.7000 14° North 350 403 20,400 -1,800 Descending Vancouver Center
12:28PM 52.9167 -122.6667 11° North 340 391 18,700 -1,680 Descending Vancouver Center
12:29PM 53.0167 -122.6333 360° North 330 380 17,100 -1,740 Descending Vancouver Center
12:30PM 53.1000 -122.6333 11° North 330 380 15,300 -1,800 Descending Vancouver Center
12:31PM 53.2000 -122.6000 13° North 320 368 13,500 -1,740 Descending Vancouver Center
12:32PM 53.2833 -122.5667 360° North 320 368 11,900 -1,200 Descending Vancouver Center
12:33PM 53.3500 -122.5667 13° North 300 345 11,100 -720 Descending Vancouver Center
12:34PM 53.4333 -122.5333 343° North 260 299 10,500 -960 Descending Vancouver Center
12:35PM 53.5000 -122.5667 352° North 250 288 9,200 -1,320 Descending Vancouver Center
12:36PM 53.5667 -122.5833 360° North 250 288 7,900 -1,260 Descending Vancouver Center
12:37PM 53.6333 -122.5833 344° North 240 276 6,700 -1,260 Descending Vancouver Center
12:38PM 53.7000 -122.6167 349° North 230 265 5,400 -1,200 Descending Vancouver Center
12:39PM 53.7500 -122.6333 360° North 210 242 4,300 -1,080 Descending Vancouver Center
12:40PM 53.8000 -122.6333 329° Northwest 180 207 3,300 -900 Descending Vancouver Center
12:41PM 53.8333 -122.6667 329° Northwest 150 173 2,500 -840 Descending Vancouver Center